»·PEaware :: N2070X KPDX-KBFI

N2070X :: KPDX-KBFI

FLIGHT INFORMATION

Flight Status: Arrived
Operator: Privately registered:
United States
More flights under this callsign
Pilot: Roger K. (8372)
Aircraft: Unknown
(CE T)
More flights by this aircraft type
Origin: KPDX Portland Intl
United States
Destination: KBFI Boeing Field/King Co Intl
United States
More flights between these airports :: More routes between these airports
Route: PTLD1 BTG V287 OLM FOURT ISOGE
File this flight plan on PilotEdge
Remarks: +CW / ILS RWY 14R APPROACH
Altitude:
(Current/Filed)
8,000ft
Speed:
(Current/Filed)
120kts
Departed: 11-Feb-19 08:05 PM
Arrived: 11-Feb-19 09:18 PM
Distance/Time
Traveled:
117nm/1:12
Distance/Time
To Go:
Arrived

Flight Plot

Page will automatically refresh every two minutes.

Flight plan parsing failed; only flown route is shown


Map Options




Map Legend


Flown Route
Filed Route
Departure Airport
Arrival Airport
Navaid (VOR, NDB)
Fix

Horizontal Profiles

Position Reports

Time Latitude Longitude Heading Altitude Ground
Speed
11-Feb-19 19:40 45.586212 -122.581136 324 26ft 0kts
11-Feb-19 19:41 45.586212 -122.581136 324 26ft 0kts
11-Feb-19 19:42 45.586212 -122.581136 324 26ft 0kts
11-Feb-19 19:43 45.586212 -122.581136 324 26ft 0kts
11-Feb-19 19:44 45.586212 -122.581136 324 26ft 0kts
11-Feb-19 19:45 45.586212 -122.581136 324 26ft 0kts
11-Feb-19 19:46 45.586212 -122.581136 324 26ft 0kts
11-Feb-19 19:47 45.586212 -122.581136 324 26ft 0kts
11-Feb-19 19:48 45.586212 -122.581136 324 26ft 0kts
11-Feb-19 19:49 45.586212 -122.581136 324 26ft 0kts
11-Feb-19 19:50 45.586212 -122.581136 324 26ft 0kts
11-Feb-19 19:51 45.586212 -122.581136 324 26ft 0kts
11-Feb-19 19:52 45.586212 -122.581136 324 26ft 0kts
11-Feb-19 19:53 45.586212 -122.581136 324 26ft 0kts
11-Feb-19 19:54 45.586212 -122.581136 324 26ft 0kts
11-Feb-19 19:55 45.586212 -122.581136 324 26ft 0kts
11-Feb-19 19:56 45.586212 -122.581136 324 26ft 0kts
11-Feb-19 19:57 45.586291 -122.580944 166 26ft 1kts
11-Feb-19 19:58 45.586220 -122.579077 81 26ft 5kts
11-Feb-19 19:59 45.586311 -122.577273 116 26ft 10kts
11-Feb-19 20:00 45.586291 -122.576577 42 26ft 0kts
11-Feb-19 20:01 45.586291 -122.576577 42 26ft 0kts
11-Feb-19 20:02 45.586291 -122.576577 42 26ft 0kts
11-Feb-19 20:03 45.586353 -122.576508 36 26ft 3kts
11-Feb-19 20:04 45.591853 -122.587686 298 100ft 95kts
11-Feb-19 20:05 45.605567 -122.622087 316 1102ft 111kts
11-Feb-19 20:06 45.636211 -122.602764 21 1610ft 139kts
11-Feb-19 20:07 45.663246 -122.625006 295 2098ft 130kts
11-Feb-19 20:08 45.675592 -122.659069 295 2543ft 122kts
11-Feb-19 20:09 45.694962 -122.696220 348 3123ft 128kts
11-Feb-19 20:10 45.717850 -122.658726 59 3707ft 135kts
11-Feb-19 20:11 45.737987 -122.613233 57 4302ft 135kts
11-Feb-19 20:12 45.766883 -122.595170 347 4865ft 128kts
11-Feb-19 20:13 45.796361 -122.601346 345 5361ft 128kts
11-Feb-19 20:14 45.830666 -122.609625 344 5939ft 119kts
11-Feb-19 20:15 45.861385 -122.617039 343 6515ft 110kts
11-Feb-19 20:17 45.892994 -122.625189 344 7122ft 119kts
11-Feb-19 20:18 45.927280 -122.634256 345 7733ft 132kts
11-Feb-19 20:19 45.964495 -122.644141 347 8284ft 144kts
11-Feb-19 20:20 46.005330 -122.654490 347 8061ft 140kts
11-Feb-19 20:21 46.043529 -122.664012 347 8067ft 138kts
11-Feb-19 20:22 46.081430 -122.673492 346 8068ft 139kts
11-Feb-19 20:23 46.121010 -122.683524 347 8070ft 149kts
11-Feb-19 20:24 46.142718 -122.689012 347 8069ft 151kts
11-Feb-19 20:25 46.184358 -122.699523 347 8067ft 152kts
11-Feb-19 20:26 46.226450 -122.710121 347 8071ft 156kts
11-Feb-19 20:27 46.270816 -122.721399 347 8072ft 169kts
11-Feb-19 20:28 46.316971 -122.735116 352 8069ft 170kts
11-Feb-19 20:29 46.352540 -122.744547 353 8069ft 170kts
11-Feb-19 20:30 46.399267 -122.756445 353 8070ft 170kts
11-Feb-19 20:31 46.445804 -122.768554 354 8071ft 169kts
11-Feb-19 20:31 46.484301 -122.778590 354 8069ft 168kts
11-Feb-19 20:33 46.536467 -122.791995 355 8069ft 159kts
11-Feb-19 20:34 46.577673 -122.802669 355 8065ft 149kts
11-Feb-19 20:35 46.617718 -122.812971 355 8068ft 147kts
11-Feb-19 20:35 46.625474 -122.815001 355 8125ft 143kts
11-Feb-19 20:37 46.671998 -122.826966 355 8149ft 148kts
11-Feb-19 20:38 46.687342 -122.830874 355 8150ft 148kts
11-Feb-19 20:38 46.687342 -122.830874 355 8150ft 148kts
11-Feb-19 20:39 46.687342 -122.830874 355 8150ft 148kts
11-Feb-19 20:40 46.687342 -122.830874 355 8150ft 148kts
11-Feb-19 20:41 46.726933 -122.841015 355 8150ft 149kts
11-Feb-19 20:42 46.767796 -122.851514 355 8149ft 149kts
11-Feb-19 20:43 46.808756 -122.862051 355 8152ft 149kts
11-Feb-19 20:44 46.849715 -122.872616 355 8150ft 149kts
11-Feb-19 20:45 46.890571 -122.883178 355 8148ft 149kts
11-Feb-19 20:46 46.931554 -122.893767 356 8152ft 149kts
11-Feb-19 20:47 46.972255 -122.902410 22 8148ft 142kts
11-Feb-19 20:48 47.001391 -122.869213 49 8151ft 132kts
11-Feb-19 20:49 47.029105 -122.834082 50 8152ft 132kts
11-Feb-19 20:50 47.056890 -122.798693 50 8151ft 132kts
11-Feb-19 20:51 47.084081 -122.764020 50 8153ft 132kts
11-Feb-19 20:52 47.111844 -122.728537 50 8152ft 132kts
11-Feb-19 20:53 47.139614 -122.693007 50 8151ft 132kts
11-Feb-19 20:54 47.167252 -122.657595 50 8135ft 133kts
11-Feb-19 20:55 47.195566 -122.622176 33 8100ft 139kts
11-Feb-19 20:56 47.237137 -122.611220 16 7595ft 153kts
11-Feb-19 20:57 47.276216 -122.601220 16 7125ft 149kts
11-Feb-19 20:58 47.307922 -122.592861 16 6740ft 148kts
11-Feb-19 20:59 47.341733 -122.583604 16 6329ft 147kts
11-Feb-19 21:00 47.377814 -122.573478 16 6085ft 135kts
11-Feb-19 21:01 47.412797 -122.564143 16 6088ft 127kts
11-Feb-19 21:02 47.445064 -122.555706 16 6088ft 125kts
11-Feb-19 21:03 47.478678 -122.546886 16 5649ft 119kts
11-Feb-19 21:04 47.510645 -122.538254 16 5158ft 116kts
11-Feb-19 21:05 47.541521 -122.529525 16 4679ft 116kts
11-Feb-19 21:06 47.574274 -122.525102 5 4201ft 126kts
11-Feb-19 21:07 47.609387 -122.523199 5 3696ft 126kts
11-Feb-19 21:08 47.644494 -122.520898 5 3190ft 126kts
11-Feb-19 21:09 47.679035 -122.518272 7 2683ft 123kts
11-Feb-19 21:10 47.697185 -122.481627 68 2175ft 114kts
11-Feb-19 21:11 47.700729 -122.440806 147 1664ft 106kts
11-Feb-19 21:12 47.674780 -122.425321 151 1769ft 104kts
11-Feb-19 21:13 47.645568 -122.400520 150 2056ft 138kts
11-Feb-19 21:14 47.610256 -122.370486 150 1617ft 158kts
11-Feb-19 21:15 47.571485 -122.337570 150 730ft 162kts
11-Feb-19 21:16 47.547150 -122.317168 150 211ft 58kts
11-Feb-19 21:17 47.535701 -122.307276 151 22ft 25kts
11-Feb-19 21:18 47.534027 -122.305370 106 22ft 7kts
11-Feb-19 21:19 47.533598 -122.302576 133 22ft 1kts
11-Feb-19 21:20 47.533005 -122.301941 153 22ft 14kts
11-Feb-19 21:21 47.529214 -122.298798 150 22ft 24kts
11-Feb-19 21:22 47.527568 -122.297116 36 22ft 4kts
11-Feb-19 21:23 47.527654 -122.297136 311 22ft 0kts

Navigation Log

Ident Type
Flight plan parsing failed, navigation log unavailable